Time;durP1;ratioP1;P1;durP2;ratioP2;P2;SDS_P1;SDS_P2;PMS_P1;PMS_P2;Temp;Humidity;BMP_temperature;BMP_pressure;BME280_temperature;BME280_humidity;BME280_pressure;Samples;Min_cycle;Max_cycle;Signal;HPM_P1;HPM_P2
2022/04/04 00:02:09;;;;;;;;;37.50;32.00;;;;;0.08;74.34;99831.59;6276865;20;2500380;-59
2022/04/04 00:04:37;;;;;;;;;36.50;30.00;;;;;0.21;74.60;99835.78;6281100;20;2500285;-59
2022/04/04 00:07:05;;;;;;;;;30.50;28.00;;;;;0.57;73.55;99832.50;6281123;20;2500268;-58
2022/04/04 00:09:33;;;;;;;;;34.50;30.00;;;;;0.46;72.77;99834.47;6279031;20;2500356;-58
2022/04/04 00:12:01;;;;;;;;;33.50;31.00;;;;;0.64;72.58;99834.13;6281316;20;2500689;-59
2022/04/04 00:14:29;;;;;;;;;28.50;26.50;;;;;0.56;72.18;99834.28;6277675;20;2500729;-59
2022/04/04 00:17:00;;;;;;;;;31.00;23.00;;;;;0.54;71.84;99838.72;6285481;20;2844026;-59
2022/04/04 00:19:28;;;;;;;;;37.33;29.33;;;;;0.55;71.65;99836.94;6282600;20;2867948;-59
2022/04/04 00:21:57;;;;;;;;;44.00;34.00;;;;;0.54;71.90;99836.06;6310694;20;2500270;-60
2022/04/04 00:24:27;;;;;;;;;24.33;22.33;;;;;0.80;71.74;99829.44;6282307;20;3555575;-58
2022/04/04 00:26:55;;;;;;;;;35.00;30.00;;;;;0.73;71.15;99833.06;6281112;20;2500255;-59
2022/04/04 00:29:24;;;;;;;;;29.50;27.50;;;;;0.63;71.26;99838.56;6277389;20;2500787;-59
2022/04/04 00:31:53;;;;;;;;;37.00;30.00;;;;;0.70;71.56;99833.13;6281941;20;2500268;-60
2022/04/04 00:34:22;;;;;;;;;36.33;30.00;;;;;0.21;72.59;99830.50;6283666;20;3597168;-58
2022/04/04 00:36:50;;;;;;;;;30.00;27.00;;;;;0.63;72.26;99827.97;6280314;20;2500295;-58
2022/04/04 00:39:19;;;;;;;;;32.50;27.00;;;;;0.56;71.84;99831.63;6279621;20;2500270;-59
2022/04/04 00:41:48;;;;;;;;;30.00;25.50;;;;;0.47;71.83;99831.78;6280298;20;2500286;-59
2022/04/04 00:44:16;;;;;;;;;26.50;26.50;;;;;0.63;71.28;99829.72;6281779;20;2500284;-59
2022/04/04 00:46:44;;;;;;;;;31.00;25.50;;;;;0.53;71.19;99828.19;6280725;20;2500361;-58
2022/04/04 00:49:12;;;;;;;;;32.50;27.00;;;;;0.37;70.91;99828.47;6285824;20;2851361;-58
2022/04/04 00:51:41;;;;;;;;;29.00;23.50;;;;;0.34;71.13;99820.59;6280354;20;2839870;-59
2022/04/04 00:54:10;;;;;;;;;22.33;21.67;;;;;0.37;70.48;99832.84;6283199;20;3555534;-59
2022/04/04 00:56:38;;;;;;;;;31.00;27.00;;;;;0.30;70.75;99828.59;6310588;20;2498182;-59
2022/04/04 00:59:11;;;;;;;;;30.00;29.00;;;;;0.33;70.92;99834.69;6282827;20;3582777;-60
2022/04/04 01:01:40;;;;;;;;;28.50;25.00;;;;;0.19;71.29;99829.66;6280682;20;2502369;-59
2022/04/04 01:04:12;;;;;;;;;40.50;33.50;;;;;0.20;71.35;99822.59;6279153;20;2500308;-58
2022/04/04 01:06:41;;;;;;;;;43.00;31.00;;;;;0.36;71.27;99828.47;6280295;20;2500290;-60
2022/04/04 01:09:13;;;;;;;;;30.00;27.00;;;;;0.38;71.20;99827.56;6277126;20;2500284;-59
2022/04/04 01:12:08;;;;;;;;;34.00;29.00;;;;;0.53;70.98;99826.41;6280704;20;2853436;-58
2022/04/04 01:14:48;;;;;;;;;27.00;24.67;;;;;0.08;71.50;99826.31;6282318;20;3574275;-50
2022/04/04 01:17:25;;;;;;;;;30.00;25.67;;;;;0.27;70.98;99824.22;6282911;20;3577300;-50
2022/04/04 01:19:56;;;;;;;;;29.00;26.00;;;;;0.02;71.60;99829.03;6282882;20;2852328;-51
2022/04/04 01:22:24;;;;;;;;;27.33;26.00;;;;;0.42;70.87;99828.34;6280636;20;3580461;-50
2022/04/04 01:24:53;;;;;;;;;26.67;18.33;;;;;0.33;71.20;99826.75;6281238;20;3551379;-50
2022/04/04 01:27:22;;;;;;;;;21.33;20.00;;;;;0.02;70.95;99829.03;6312478;20;3558649;-49
2022/04/04 01:29:51;;;;;;;;;30.33;27.00;;;;;0.28;71.30;99828.59;6280204;20;3591932;-51
2022/04/04 01:32:18;;;;;;;;;26.00;22.00;;;;;0.28;71.50;99825.09;6278235;20;2500266;-48
2022/04/04 01:34:46;;;;;;;;;24.50;19.00;;;;;0.08;71.57;99828.97;6282961;20;2825362;-50
2022/04/04 01:37:14;;;;;;;;;27.00;22.00;;;;;0.18;70.44;99819.09;6280502;20;2829511;-47
2022/04/04 01:39:42;;;;;;;;;25.00;22.00;;;;;0.21;71.23;99819.03;6278571;20;2500252;-46
2022/04/04 01:42:10;;;;;;;;;27.00;22.00;;;;;-0.03;71.66;99820.31;6282291;20;2652394;-49
2022/04/04 01:44:38;;;;;;;;;18.33;14.67;;;;;0.22;70.03;99819.03;6280753;20;3548125;-47
2022/04/04 01:47:06;;;;;;;;;18.67;18.67;;;;;0.07;70.10;99829.84;6317388;20;1826364;-50
2022/04/04 01:49:34;;;;;;;;;24.00;24.00;;;;;0.05;70.93;99825.47;6312229;20;2835757;-48
2022/04/04 01:52:02;;;;;;;;;22.00;19.00;;;;;0.03;70.67;99825.53;6287639;20;2699477;-46
2022/04/04 01:54:30;;;;;;;;;26.00;21.00;;;;;0.13;70.66;99827.13;6313776;20;2825411;-50
2022/04/04 01:57:00;;;;;;;;;19.60;17.40;;;;;-0.10;71.54;99834.53;6301479;20;2820217;-50
2022/04/04 01:59:28;;;;;;;;;21.00;19.00;;;;;0.08;70.47;99828.06;6281524;20;2827334;-49
2022/04/04 02:01:56;;;;;;;;;22.67;19.67;;;;;0.20;70.05;99828.72;6280538;20;3556552;-50
2022/04/04 02:04:25;;;;;;;;;27.67;22.67;;;;;0.05;69.63;99838.69;6310467;20;3577339;-49
2022/04/04 02:06:54;;;;;;;;;26.00;18.00;;;;;0.04;69.89;99835.19;6281531;20;3573152;-50
2022/04/04 02:09:24;;;;;;;;;22.00;22.00;;;;;0.03;69.75;99830.81;6306041;20;2825379;-47
2022/04/04 02:11:52;;;;;;;;;27.00;23.00;;;;;0.09;69.36;99830.69;6278794;20;2831551;-49
2022/04/04 02:14:20;;;;;;;;;21.50;19.00;;;;;0.02;69.84;99836.97;6279528;20;2817012;-47
2022/04/04 02:16:48;;;;;;;;;25.50;19.00;;;;;0.19;69.54;99836.69;6280548;20;2825404;-47
2022/04/04 02:19:17;;;;;;;;;28.00;26.00;;;;;0.02;69.87;99836.09;6279918;20;2840909;-50
2022/04/04 02:21:46;;;;;;;;;29.50;22.50;;;;;-0.03;69.25;99837.06;6284307;20;2845085;-49
2022/04/04 02:24:14;;;;;;;;;22.67;22.67;;;;;-0.03;69.58;99836.16;6281688;20;3559616;-46
2022/04/04 02:26:43;;;;;;;;;21.00;19.00;;;;;-0.10;69.49;99839.81;6319362;20;2833597;-47
2022/04/04 02:29:11;;;;;;;;;18.00;16.00;;;;;0.05;69.89;99841.31;6284387;20;3555530;-51
2022/04/04 02:31:39;;;;;;;;;25.50;23.00;;;;;-0.29;70.80;99840.09;6319392;20;2829521;-50
2022/04/04 02:34:08;;;;;;;;;22.00;20.33;;;;;0.04;69.95;99842.22;6283987;20;3556485;-49
2022/04/04 02:36:36;;;;;;;;;28.00;23.00;;;;;-0.15;70.06;99846.94;6284562;20;3571132;-47
2022/04/04 02:39:04;;;;;;;;;23.00;22.50;;;;;-0.08;70.37;99848.56;6314972;20;2821118;-50
2022/04/04 02:41:33;;;;;;;;;27.67;20.33;;;;;-0.04;70.04;99845.84;6283831;20;3568083;-51
2022/04/04 02:44:02;;;;;;;;;22.00;19.00;;;;;-0.24;70.91;99848.81;6314315;20;3536722;-46
2022/04/04 02:46:31;;;;;;;;;22.67;21.67;;;;;-0.29;70.67;99850.66;6315395;20;3553471;-49
2022/04/04 02:49:00;;;;;;;;;19.67;15.00;;;;;-0.13;70.90;99851.28;6316931;20;2817048;-48
2022/04/04 02:51:29;;;;;;;;;23.33;19.00;;;;;-0.07;70.17;99845.91;6318354;20;3549207;-50
2022/04/04 02:53:57;;;;;;;;;28.00;25.00;;;;;-0.47;71.72;99866.75;6317129;20;2848303;-48
2022/04/04 02:56:31;;;;;;;;;24.67;22.33;;;;;-0.59;74.08;99851.09;6286145;20;3560654;-49
2022/04/04 02:59:01;;;;;;;;;24.00;22.00;;;;;-0.35;73.53;99847.22;6318379;20;2831648;-49
2022/04/04 03:01:30;;;;;;;;;18.00;16.00;;;;;-0.66;73.65;99850.28;6283195;20;2801369;-47
2022/04/04 03:03:58;;;;;;;;;27.50;27.00;;;;;-0.62;73.49;99857.25;6283097;20;2842974;-46
2022/04/04 03:06:28;;;;;;;;;29.00;23.67;;;;;-0.47;73.86;99856.19;6285517;20;3574207;-47
2022/04/04 03:08:57;;;;;;;;;25.00;22.00;;;;;-0.52;72.84;99858.03;6312854;20;3572184;-49
2022/04/04 03:11:26;;;;;;;;;24.33;19.67;;;;;-0.40;72.79;99865.75;6284565;20;3553403;-46
2022/04/04 03:13:54;;;;;;;;;35.00;24.00;;;;;-0.56;72.58;99864.22;6319741;20;2861101;-50
2022/04/04 03:16:22;;;;;;;;;23.67;20.33;;;;;-0.57;72.47;99862.50;6284649;20;3554577;-50
2022/04/04 03:18:54;;;;;;;;;26.33;25.00;;;;;-0.59;72.25;99867.78;6315821;20;3572227;-50
2022/04/04 03:21:23;;;;;;;;;27.67;24.67;;;;;-0.68;72.85;99860.00;6283876;20;3575068;-49
2022/04/04 03:23:52;;;;;;;;;24.67;20.33;;;;;-0.71;72.28;99862.66;6315525;20;3563811;-48
2022/04/04 03:26:23;;;;;;;;;16.50;12.83;;;;;-0.58;73.23;99868.63;6353967;20;1825471;-48
2022/04/04 03:28:52;;;;;;;;;26.67;22.00;;;;;-0.72;73.45;99863.53;6287122;20;3563794;-47
2022/04/04 03:31:21;;;;;;;;;24.00;22.00;;;;;-0.58;73.47;99877.44;6316489;20;3564936;-46
2022/04/04 03:33:50;;;;;;;;;29.33;25.67;;;;;-0.56;72.95;99867.72;6282579;20;3575276;-48
2022/04/04 03:36:18;;;;;;;;;25.50;20.50;;;;;-0.32;72.37;99871.78;6317852;20;2825271;-47
2022/04/04 03:38:47;;;;;;;;;26.00;25.00;;;;;-0.88;72.49;99862.88;6279949;20;2839861;-48
2022/04/04 03:41:15;;;;;;;;;22.00;14.50;;;;;-0.60;72.18;99873.94;6282342;20;2824206;-50
2022/04/04 03:43:42;;;;;;;;;24.00;22.00;;;;;-0.43;71.37;99880.75;6285207;20;2821151;-49
2022/04/04 03:46:11;;;;;;;;;22.67;21.00;;;;;-0.46;71.85;99873.75;6281651;20;2811773;-48
2022/04/04 03:48:40;;;;;;;;;25.00;23.00;;;;;-0.51;70.66;99888.75;6313511;20;2837985;-48
2022/04/04 03:51:09;;;;;;;;;14.50;14.50;;;;;-0.48;70.09;99886.94;6282902;20;2795597;-47
2022/04/04 03:53:38;;;;;;;;;19.00;19.00;;;;;-0.23;68.49;99890.13;6285292;20;3557533;-48
2022/04/04 03:56:07;;;;;;;;;23.33;17.33;;;;;-0.36;68.43;99896.47;6314438;20;3560633;-52
2022/04/04 03:58:36;;;;;;;;;27.67;21.33;;;;;-0.26;69.30;99900.72;6315966;20;3558551;-46
2022/04/04 04:01:04;;;;;;;;;31.00;22.00;;;;;-0.67;71.12;99906.53;6282859;20;2840974;-49
2022/04/04 04:03:34;;;;;;;;;28.33;21.67;;;;;-0.64;71.49;99900.38;6278166;20;3561836;-48
2022/04/04 04:06:11;;;;;;;;;27.00;24.00;;;;;-0.68;71.58;99905.69;6285548;20;2844044;-48
2022/04/04 04:08:45;;;;;;;;;24.00;24.00;;;;;-0.68;71.53;99908.31;6284808;20;2847119;-49
2022/04/04 04:11:16;;;;;;;;;29.50;25.50;;;;;-0.64;71.91;99916.19;6287547;20;2830546;-52
2022/04/04 04:13:47;;;;;;;;;27.33;23.33;;;;;-0.89;72.26;99911.22;6283374;20;3558594;-46
2022/04/04 04:16:15;;;;;;;;;27.50;27.00;;;;;-0.55;71.67;99916.09;6316676;20;2851304;-48
2022/04/04 04:18:44;;;;;;;;;29.00;21.00;;;;;-0.82;72.60;99915.50;6283496;20;2836797;-47
2022/04/04 04:21:12;;;;;;;;;29.00;23.00;;;;;-0.93;73.48;99914.75;6286902;20;2833024;-47
2022/04/04 04:23:44;;;;;;;;;28.33;22.00;;;;;-1.07;73.31;99921.97;6281542;20;3566920;-48
2022/04/04 04:26:16;;;;;;;;;30.00;24.00;;;;;-1.25;74.41;99918.59;6316964;20;2852380;-48
2022/04/04 04:28:47;;;;;;;;;27.00;25.33;;;;;-1.04;74.27;99927.19;6285299;20;3572130;-48
2022/04/04 04:31:17;;;;;;;;;33.00;23.50;;;;;-1.35;74.12;99927.47;6286980;20;2842002;-50
2022/04/04 04:33:47;;;;;;;;;32.00;27.00;;;;;-0.97;73.42;99926.25;6283844;20;3587868;-48
2022/04/04 04:36:16;;;;;;;;;32.00;24.33;;;;;-1.26;74.97;99926.50;6279147;20;3592058;-49
2022/04/04 04:38:44;;;;;;;;;27.50;21.00;;;;;-0.67;72.15;99931.13;6283991;20;2831562;-49
2022/04/04 04:41:12;;;;;;;;;28.67;27.00;;;;;-0.80;72.86;99924.28;6280783;20;3587791;-47
2022/04/04 04:43:41;;;;;;;;;27.00;22.67;;;;;-0.67;72.44;99927.63;6279778;20;3574251;-53
2022/04/04 04:46:10;;;;;;;;;20.67;16.00;;;;;-0.94;73.61;99928.84;6315043;20;3550358;-53
2022/04/04 04:48:39;;;;;;;;;24.33;19.33;;;;;-0.91;72.98;99932.31;6312383;20;2819204;-55
2022/04/04 04:51:08;;;;;;;;;29.33;24.00;;;;;-1.14;73.41;99929.03;6315380;20;3579429;-55
2022/04/04 04:53:37;;;;;;;;;27.67;24.33;;;;;-0.90;72.60;99933.16;6314835;20;3572139;-53
2022/04/04 04:56:06;;;;;;;;;22.33;19.33;;;;;-0.92;71.77;99932.34;6313131;20;3573140;-55
2022/04/04 04:58:34;;;;;;;;;28.00;24.00;;;;;-1.15;71.58;99941.34;6316054;20;2837825;-53
2022/04/04 05:01:01;;;;;;;;;28.00;24.00;;;;;-1.13;72.30;99934.31;6283454;20;2821099;-54
2022/04/04 05:03:30;;;;;;;;;36.00;29.67;;;;;-0.86;72.22;99934.91;6280098;20;3602362;-53
2022/04/04 05:05:58;;;;;;;;;34.00;31.00;;;;;-0.70;71.24;99944.38;6280524;20;2850269;-53
2022/04/04 05:08:27;;;;;;;;;31.67;29.00;;;;;-0.54;71.12;99946.81;6282814;20;3582658;-54
2022/04/04 05:10:56;;;;;;;;;50.50;40.00;;;;;0.61;67.88;99951.31;6283096;20;2875259;-54
2022/04/04 05:13:24;;;;;;;;;36.00;28.00;;;;;0.21;68.13;99951.94;6280527;20;2500343;-55
2022/04/04 05:15:58;;;;;;;;;44.00;42.00;;;;;-0.28;70.08;99960.56;6281650;20;2873218;-54
2022/04/04 05:18:26;;;;;;;;;44.00;35.50;;;;;-0.40;71.74;99955.41;6280716;20;2500368;-56
2022/04/04 05:20:55;;;;;;;;;43.50;35.00;;;;;-0.40;72.91;99958.06;6282256;20;2872152;-56
2022/04/04 05:23:23;;;;;;;;;46.50;39.50;;;;;-0.44;73.45;99966.91;6277334;20;2506540;-54
2022/04/04 05:25:52;;;;;;;;;43.50;38.00;;;;;0.03;73.82;99957.50;6280129;20;2869036;-55
2022/04/04 05:28:21;;;;;;;;;55.00;47.00;;;;;0.17;73.42;99965.22;6283290;20;2859649;-56
2022/04/04 05:30:49;;;;;;;;;65.50;48.00;;;;;0.82;71.03;99968.56;6279783;20;2508615;-52
2022/04/04 05:33:17;;;;;;;;;71.00;55.00;;;;;0.59;70.86;99970.72;6278489;20;2500259;-55
2022/04/04 05:35:47;;;;;;;;;77.00;56.00;;;;;0.33;71.11;99965.84;6280705;20;3651309;-54
2022/04/04 05:38:16;;;;;;;;;67.00;52.50;;;;;0.85;68.18;99975.56;6311879;20;2859765;-54
2022/04/04 05:40:45;;;;;;;;;64.50;50.00;;;;;1.90;64.77;99985.88;6279238;20;2864831;-56
2022/04/04 05:43:13;;;;;;;;;52.00;44.50;;;;;1.45;67.15;99982.38;6274917;20;2501335;-55
2022/04/04 05:45:41;;;;;;;;;36.00;34.00;;;;;1.91;64.45;99981.44;6278061;20;2508684;-53
2022/04/04 05:48:10;;;;;;;;;41.50;35.50;;;;;1.64;64.35;99982.91;6278643;20;2853393;-54
2022/04/04 05:50:37;;;;;;;;;35.00;32.00;;;;;1.92;63.47;99989.38;6279029;20;2508810;-56
2022/04/04 05:53:06;;;;;;;;;40.00;31.50;;;;;2.06;65.13;99988.19;6282037;20;2860687;-56
2022/04/04 05:55:34;;;;;;;;;32.00;24.00;;;;;2.47;61.98;99987.22;6277149;20;2500275;-56
2022/04/04 05:58:02;;;;;;;;;32.00;25.50;;;;;3.95;57.78;99984.19;6277919;20;2500284;-56
2022/04/04 06:00:31;;;;;;;;;35.50;31.50;;;;;4.31;55.55;99991.94;6277169;20;2851423;-55
2022/04/04 06:03:01;;;;;;;;;39.00;37.00;;;;;4.91;55.08;99993.56;6280866;20;2867948;-56
2022/04/04 06:05:30;;;;;;;;;26.67;22.67;;;;;4.90;54.51;99997.16;6281548;20;3585699;-56
2022/04/04 06:07:58;;;;;;;;;28.00;23.00;;;;;6.11;51.79;100003.50;6283027;20;2856504;-54
2022/04/04 06:10:27;;;;;;;;;24.67;20.67;;;;;6.18;50.54;100009.44;6278333;20;3577317;-55
2022/04/04 06:12:55;;;;;;;;;29.00;22.50;;;;;6.20;49.34;100009.41;6277215;20;2500278;-54
2022/04/04 06:15:23;;;;;;;;;21.67;18.67;;;;;6.36;49.43;100005.22;6279275;20;3563801;-56
2022/04/04 06:17:52;;;;;;;;;29.00;24.00;;;;;7.36;47.91;100011.78;6283466;20;2500290;-54
2022/04/04 06:20:21;;;;;;;;;25.50;23.00;;;;;8.17;44.36;100015.31;6280656;20;2838841;-57
2022/04/04 06:22:49;;;;;;;;;21.00;18.50;;;;;9.66;39.26;100016.88;6284298;20;2833586;-58
2022/04/04 06:25:19;;;;;;;;;16.67;16.67;;;;;8.75;40.43;100021.47;6278622;20;3556487;-58
2022/04/04 06:27:47;;;;;;;;;21.00;19.00;;;;;9.70;40.37;100026.50;6279320;20;2496088;-58
2022/04/04 06:30:15;;;;;;;;;26.50;21.50;;;;;9.31;42.03;100019.56;6275722;20;2500324;-58
2022/04/04 06:32:44;;;;;;;;;21.00;21.00;;;;;9.74;41.01;100021.84;6280948;20;2838857;-58
2022/04/04 06:35:15;;;;;;;;;21.67;20.00;;;;;10.83;38.55;100022.13;6280166;20;3571118;-58
2022/04/04 06:37:46;;;;;;;;;14.67;14.33;;;;;12.31;34.36;100032.97;6311882;20;3523213;-56
2022/04/04 06:40:15;;;;;;;;;13.67;12.67;;;;;12.01;31.83;100031.25;6310244;20;3525307;-55
2022/04/04 06:42:45;;;;;;;;;12.00;12.00;;;;;12.91;30.28;100032.69;6313173;20;2756584;-56
2022/04/04 06:45:14;;;;;;;;;11.00;11.00;;;;;9.76;33.26;100028.00;6285084;20;2796190;-58
2022/04/04 06:47:41;;;;;;;;;13.50;11.00;;;;;7.27;39.30;100029.09;6283015;20;2791910;-58
2022/04/04 06:50:13;;;;;;;;;14.40;11.00;;;;;6.34;42.47;100023.91;6304754;20;2787167;-58
2022/04/04 06:52:43;;;;;;;;;11.00;11.00;;;;;5.96;41.93;100024.53;6282933;20;2789828;-58
2022/04/04 06:55:34;;;;;;;;;7.00;6.67;;;;;5.90;42.42;100025.59;6324703;20;1805546;-57
2022/04/04 06:58:02;;;;;;;;;12.50;10.00;;;;;5.31;42.16;100016.16;6281033;20;2781502;-56
2022/04/04 07:00:30;;;;;;;;;6.00;3.00;;;;;5.49;42.67;100019.97;6283065;20;2744026;-52
2022/04/04 07:02:59;;;;;;;;;12.80;11.20;;;;;6.17;43.57;100026.38;6304097;20;2791917;-55
2022/04/04 07:05:28;;;;;;;;;16.50;12.00;;;;;5.55;43.32;100022.41;6279747;20;2791921;-56
2022/04/04 07:07:56;;;;;;;;;12.00;11.00;;;;;5.61;44.54;100022.19;6283929;20;2774290;-54
2022/04/04 07:10:24;;;;;;;;;14.00;14.00;;;;;5.60;43.92;100024.91;6285786;20;2794120;-56
2022/04/04 07:12:52;;;;;;;;;14.00;10.00;;;;;5.90;44.60;100018.47;6287090;20;2784704;-55
2022/04/04 07:15:21;;;;;;;;;19.00;11.67;;;;;5.93;46.38;100026.38;6286013;20;2802350;-56
2022/04/04 07:17:49;;;;;;;;;14.33;14.33;;;;;5.31;45.09;100029.47;6316780;20;2809614;-57
2022/04/04 07:20:19;;;;;;;;;18.00;14.00;;;;;5.31;46.46;100013.47;6314395;20;2804480;-57
2022/04/04 07:22:48;;;;;;;;;21.33;14.00;;;;;5.92;45.00;100024.63;6285614;20;3550219;-56
2022/04/04 07:25:17;;;;;;;;;13.67;12.00;;;;;6.32;44.16;100031.13;6314049;20;2812895;-56
2022/04/04 07:27:46;;;;;;;;;17.00;12.33;;;;;6.63;42.07;100029.91;6315729;20;2802652;-57
2022/04/04 07:30:19;;;;;;;;;23.67;20.00;;;;;6.56;43.27;100025.78;6312940;20;3567029;-54
2022/04/04 07:32:49;;;;;;;;;18.00;16.00;;;;;6.34;42.85;100025.72;6285968;20;2823172;-56
2022/04/04 07:35:20;;;;;;;;;17.00;16.00;;;;;6.24;43.80;100019.91;6287276;20;2822207;-53
2022/04/04 07:37:50;;;;;;;;;19.67;15.00;;;;;6.61;41.94;100026.47;6285141;20;3549185;-56
2022/04/04 07:40:21;;;;;;;;;16.00;14.67;;;;;6.72;43.53;100029.56;6313396;20;3550343;-57
2022/04/04 07:42:50;;;;;;;;;20.00;16.33;;;;;6.44;43.36;100024.44;6316398;20;3549174;-57
2022/04/04 07:45:20;;;;;;;;;14.33;14.33;;;;;6.55;41.45;100026.69;6315448;20;3527308;-56
2022/04/04 07:47:49;;;;;;;;;17.00;17.00;;;;;6.64;40.54;100026.34;6319210;20;2825246;-58
2022/04/04 07:50:18;;;;;;;;;15.00;14.33;;;;;6.54;40.23;100031.16;6283658;20;3530525;-57
2022/04/04 07:52:47;;;;;;;;;18.00;18.00;;;;;6.09;40.50;100021.34;6318427;20;2813829;-54
2022/04/04 07:55:16;;;;;;;;;15.00;15.00;;;;;6.46;40.97;100022.59;6281793;20;3532555;-56
2022/04/04 07:57:45;;;;;;;;;17.00;16.50;;;;;7.28;40.08;100021.94;6318009;20;2816969;-56
2022/04/04 08:00:17;;;;;;;;;17.00;13.00;;;;;7.01;40.07;100027.50;6279703;20;3542075;-56
2022/04/04 08:02:46;;;;;;;;;19.00;18.00;;;;;7.57;39.82;100029.56;6281026;20;2831638;-54
2022/04/04 08:05:15;;;;;;;;;25.50;25.00;;;;;6.60;41.27;100019.38;6283324;20;2500412;-57
2022/04/04 08:07:47;;;;;;;;;16.67;16.67;;;;;6.52;41.96;100024.16;6283596;20;3551314;-56
2022/04/04 08:10:16;;;;;;;;;17.00;17.00;;;;;5.88;41.89;100020.31;6314720;20;2815906;-55
2022/04/04 08:12:51;;;;;;;;;16.00;15.00;;;;;6.47;38.69;100028.78;6284480;20;2815016;-56
2022/04/04 08:15:20;;;;;;;;;18.33;18.33;;;;;6.29;39.46;100025.03;6285581;20;2815017;-56
2022/04/04 08:17:54;;;;;;;;;19.00;19.00;;;;;6.62;38.77;100020.19;6314904;20;2822181;-57
2022/04/04 08:20:22;;;;;;;;;17.00;14.50;;;;;6.81;39.30;100018.50;6285582;20;2823157;-56
2022/04/04 08:22:51;;;;;;;;;16.67;15.33;;;;;7.47;40.42;100020.19;6283986;20;3550243;-57
2022/04/04 08:25:19;;;;;;;;;22.00;18.00;;;;;6.98;40.22;100014.28;6314170;20;2500317;-56
2022/04/04 08:27:48;;;;;;;;;21.33;20.00;;;;;5.81;39.61;100018.78;6281778;20;3564012;-57
2022/04/04 08:30:18;;;;;;;;;43.50;37.50;;;;;6.64;38.20;100014.81;6280721;20;2876360;-56
2022/04/04 08:32:47;;;;;;;;;26.00;26.00;;;;;7.36;39.01;100019.81;6284816;20;2845181;-56
2022/04/04 08:35:17;;;;;;;;;20.00;18.00;;;;;6.78;38.57;100007.94;6286032;20;2817980;-57
2022/04/04 08:37:47;;;;;;;;;20.67;17.33;;;;;6.80;38.51;100000.75;6284712;20;3549217;-57
2022/04/04 08:40:18;;;;;;;;;17.00;14.40;;;;;7.38;38.22;100004.59;6304776;20;2806638;-57
2022/04/04 08:42:48;;;;;;;;;18.40;15.20;;;;;6.72;39.72;100002.03;6308087;20;2815244;-57
2022/04/04 08:45:17;;;;;;;;;18.00;18.00;;;;;6.10;40.12;99995.56;6282986;20;3553454;-56
2022/04/04 08:47:47;;;;;;;;;16.00;16.00;;;;;6.83;39.06;99994.44;6280985;20;3556519;-57
2022/04/04 08:50:18;;;;;;;;;16.67;13.33;;;;;6.84;38.82;99979.28;6309797;20;3556955;-57
2022/04/04 08:52:48;;;;;;;;;17.00;16.00;;;;;7.71;37.90;99994.19;6284759;20;3554572;-57
2022/04/04 08:55:16;;;;;;;;;17.00;15.00;;;;;7.88;38.04;99986.28;6316793;20;2800282;-54
2022/04/04 08:57:45;;;;;;;;;23.67;16.00;;;;;7.41;39.47;99980.41;6285048;20;3539846;-53
2022/04/04 09:00:15;;;;;;;;;18.00;18.00;;;;;7.51;37.19;99979.06;6281020;20;3551315;-54
2022/04/04 09:03:04;;;;;;;;;21.00;17.00;;;;;7.44;38.07;99980.25;6316522;20;2819072;-53
2022/04/04 09:05:50;;;;;;;;;17.33;15.33;;;;;7.90;37.46;99972.88;6283202;20;3549283;-56
2022/04/04 09:08:26;;;;;;;;;18.50;17.00;;;;;7.93;37.71;99969.19;6282751;20;2814867;-57
2022/04/04 09:11:00;;;;;;;;;15.00;15.00;;;;;8.11;36.86;99971.88;6284093;20;2807554;-56
2022/04/04 09:13:29;;;;;;;;;15.67;15.00;;;;;7.80;39.23;99959.03;6283365;20;3535715;-55
2022/04/04 09:16:04;;;;;;;;;18.00;18.00;;;;;8.07;38.19;99969.41;6315515;20;2825394;-57
2022/04/04 09:18:36;;;;;;;;;14.67;14.67;;;;;7.69;36.82;99954.19;6283824;20;3543148;-57
2022/04/04 09:21:10;;;;;;;;;18.67;17.67;;;;;7.67;36.21;99949.84;6313654;20;3561745;-56
2022/04/04 09:23:50;;;;;;;;;17.67;14.67;;;;;8.18;35.49;99944.81;6312276;20;3545053;-56
2022/04/04 09:26:43;;;;;;;;;22.50;16.00;;;;;7.24;35.91;99952.63;6316004;20;2835684;-56
2022/04/04 09:29:22;;;;;;;;;17.00;14.67;;;;;8.09;39.66;99948.81;6278868;20;3542926;-57
2022/04/04 09:32:09;;;;;;;;;13.50;12.00;;;;;8.36;37.63;99943.94;6313671;20;2797162;-56
2022/04/04 09:35:02;;;;;;;;;17.50;16.50;;;;;8.34;36.41;99937.78;6285592;20;2823173;-57
2022/04/04 09:37:35;;;;;;;;;16.00;15.00;;;;;8.84;37.05;99933.59;6282240;20;2810788;-57
2022/04/04 09:40:13;;;;;;;;;14.00;14.00;;;;;8.40;35.42;99929.53;6283167;20;2804463;-57
2022/04/04 09:42:58;;;;;;;;;17.50;15.00;;;;;8.21;35.27;99925.94;6286619;20;2810683;-56
2022/04/04 09:45:29;;;;;;;;;14.00;13.00;;;;;9.04;36.11;99920.06;6283298;20;2676388;-57
2022/04/04 09:48:03;;;;;;;;;11.67;11.00;;;;;8.09;37.02;99914.03;6281455;20;2788876;-57
2022/04/04 09:50:45;;;;;;;;;18.67;18.67;;;;;7.90;37.12;99908.72;6311833;20;3568974;-55
2022/04/04 09:53:24;;;;;;;;;22.00;19.00;;;;;8.51;36.13;99911.13;6278370;20;3563840;-55
2022/04/04 09:55:57;;;;;;;;;14.00;12.67;;;;;8.34;35.49;99908.38;6281048;20;2815043;-57
2022/04/04 09:58:30;;;;;;;;;19.00;15.00;;;;;7.84;35.79;99898.28;6314252;20;2800332;-57
2022/04/04 10:01:00;;;;;;;;;13.50;13.50;;;;;7.94;35.59;99899.59;6286368;20;2812756;-56
2022/04/04 10:03:32;;;;;;;;;16.67;15.00;;;;;8.16;35.45;99902.09;6282858;20;3548189;-56
2022/04/04 10:06:07;;;;;;;;;16.00;15.00;;;;;8.81;35.69;99890.91;6309131;20;3550231;-57
2022/04/04 10:08:38;;;;;;;;;17.67;17.00;;;;;9.37;35.45;99890.66;6308194;20;3547201;-55
2022/04/04 10:11:11;;;;;;;;;14.00;13.00;;;;;8.10;35.52;99895.22;6311985;20;3545039;-56
2022/04/04 10:13:39;;;;;;;;;16.67;15.33;;;;;8.94;34.91;99892.88;6312738;20;3537746;-56
2022/04/04 10:16:11;;;;;;;;;17.00;16.33;;;;;8.95;38.58;99875.88;6279239;20;3554548;-56
2022/04/04 10:18:43;;;;;;;;;20.00;18.00;;;;;9.26;38.65;99868.03;6281217;20;2828400;-57
2022/04/04 10:21:12;;;;;;;;;19.00;17.00;;;;;9.32;36.34;99879.31;6282354;20;2823210;-55
2022/04/04 10:23:43;;;;;;;;;21.00;18.00;;;;;8.87;37.30;99874.53;6282808;20;2823542;-57
2022/04/04 10:26:15;;;;;;;;;20.33;15.33;;;;;9.01;37.92;99870.19;6280346;20;3549215;-55
2022/04/04 10:28:46;;;;;;;;;19.67;19.67;;;;;8.27;38.43;99869.50;6275184;20;3567046;-55
2022/04/04 10:31:28;;;;;;;;;15.00;15.00;;;;;9.13;38.37;99851.75;6279122;20;3512822;-57
2022/04/04 10:34:19;;;;;;;;;20.67;19.00;;;;;9.35;38.33;99855.03;6315822;20;3561709;-56
2022/04/04 10:37:09;;;;;;;;;18.50;17.00;;;;;9.57;38.02;99848.50;6285276;20;2822144;-57
2022/04/04 10:39:48;;;;;;;;;21.00;20.50;;;;;10.13;38.11;99852.47;6279971;20;2485753;-57
2022/04/04 10:42:36;;;;;;;;;21.00;16.50;;;;;8.57;35.84;99854.59;6291521;20;2827382;-55
2022/04/04 10:45:08;;;;;;;;;17.00;17.00;;;;;9.06;37.35;99844.97;6290604;20;2821125;-55
2022/04/04 10:48:06;;;;;;;;;13.00;13.00;;;;;8.47;37.57;99836.41;6285448;20;3544099;-54
2022/04/04 10:50:35;;;;;;;;;17.33;17.00;;;;;9.13;39.13;99833.00;6319683;20;3550667;-53
2022/04/04 10:53:04;;;;;;;;;18.67;16.67;;;;;9.42;39.26;99829.59;6285123;20;3550365;-56
2022/04/04 10:55:36;;;;;;;;;20.00;16.33;;;;;9.65;37.55;99830.16;6285877;20;3546071;-56
2022/04/04 10:58:11;;;;;;;;;21.00;20.50;;;;;9.08;37.83;99829.69;6285936;20;2838831;-56
2022/04/04 11:01:15;;;;;;;;;17.00;15.00;;;;;10.03;36.22;99824.44;6286321;20;3539813;-50
2022/04/04 11:03:58;;;;;;;;;15.00;15.00;;;;;10.05;36.81;99822.56;6284255;20;3535646;-48
2022/04/04 11:09:36;;;;;;;;;25.33;20.67;;;;;9.22;40.43;99825.34;6288029;20;3560683;-48
2022/04/04 11:12:15;;;;;;;;;20.67;16.33;;;;;9.88;40.29;99815.47;6285461;20;3552457;-50
2022/04/04 11:14:47;;;;;;;;;25.50;24.00;;;;;9.37;40.29;99804.91;6283158;20;2500256;-48
2022/04/04 11:17:21;;;;;;;;;23.50;19.50;;;;;10.10;42.26;99820.47;6286696;20;2496227;-48
2022/04/04 11:20:33;;;;;;;;;24.00;21.33;;;;;8.88;39.13;99812.88;6285148;20;3577325;-49
2022/04/04 11:23:10;;;;;;;;;21.00;21.00;;;;;8.27;40.55;99797.28;6284992;20;2500262;-49
2022/04/04 11:26:04;;;;;;;;;23.50;23.50;;;;;8.90;40.41;99802.06;6289291;20;2842978;-51